Time;durP1;ratioP1;P1;durP2;ratioP2;P2;SDS_P1;SDS_P2;PMS_P1;PMS_P2;Temp;Humidity;BMP_temperature;BMP_pressure;BME280_temperature;BME280_humidity;BME280_pressure;Samples;Min_cycle;Max_cycle;Signal;HPM_P1;HPM_P2
2023/01/07 00:01:30;;;;;;;8.97;4.67;;;8.70;80.70;;;;;;5065544;28;20195;-81
2023/01/07 00:04:00;;;;;;;10.20;4.87;;;8.70;80.60;;;;;;5068900;28;20194;-80
2023/01/07 00:06:31;;;;;;;9.17;4.70;;;8.70;80.60;;;;;;5062877;28;20297;-80
2023/01/07 00:09:00;;;;;;;10.20;4.27;;;8.60;80.60;;;;;;5068329;28;20228;-80
2023/01/07 00:11:30;;;;;;;9.37;5.00;;;8.60;80.70;;;;;;5067847;28;20218;-79
2023/01/07 00:14:00;;;;;;;6.90;4.40;;;8.50;80.70;;;;;;5068649;28;20198;-81
2023/01/07 00:16:31;;;;;;;9.73;4.80;;;8.50;80.80;;;;;;5068699;28;20229;-81
2023/01/07 00:19:01;;;;;;;9.90;5.27;;;8.40;81.30;;;;;;5070910;28;20198;-80
2023/01/07 00:21:30;;;;;;;9.33;4.90;;;8.40;81.40;;;;;;5068305;28;20674;-82
2023/01/07 00:24:01;;;;;;;12.03;5.40;;;8.30;81.30;;;;;;5072399;28;20244;-81
2023/01/07 00:26:31;;;;;;;10.80;5.63;;;8.30;81.40;;;;;;5069747;28;20205;-80
2023/01/07 00:29:00;;;;;;;11.70;5.53;;;8.10;81.80;;;;;;5072539;28;20686;-81
2023/01/07 00:31:31;;;;;;;12.43;5.80;;;8.10;82.10;;;;;;5067763;28;20510;-80
2023/01/07 00:34:07;;;;;;;10.23;5.67;;;8.00;81.80;;;;;;5069728;28;20195;-80
2023/01/07 00:36:39;;;;;;;15.33;5.63;;;8.00;81.70;;;;;;5062188;28;20255;-79
2023/01/07 00:39:10;;;;;;;9.33;4.73;;;8.00;81.80;;;;;;5063952;28;20292;-80
2023/01/07 00:41:38;;;;;;;8.27;4.73;;;8.00;81.80;;;;;;5069076;28;20194;-79
2023/01/07 00:44:08;;;;;;;11.40;4.97;;;8.00;81.60;;;;;;5062446;28;20199;-81
2023/01/07 00:46:38;;;;;;;11.03;5.40;;;7.90;81.50;;;;;;5063297;28;20258;-80
2023/01/07 00:49:06;;;;;;;9.57;5.30;;;7.90;81.40;;;;;;5070166;28;20222;-80
2023/01/07 00:51:34;;;;;;;9.32;5.38;;;7.90;81.60;;;;;;5067767;28;20450;-80
2023/01/07 00:54:03;;;;;;;10.53;4.80;;;7.80;82.10;;;;;;5063587;28;20264;-79
2023/01/07 00:56:32;;;;;;;8.30;4.87;;;7.80;82.00;;;;;;5067194;28;20205;-81
2023/01/07 00:59:00;;;;;;;9.30;5.27;;;7.80;82.00;;;;;;5066461;28;20194;-80
2023/01/07 01:01:29;;;;;;;9.10;4.20;;;7.70;82.10;;;;;;5070820;28;20647;-80
2023/01/07 01:03:59;;;;;;;10.33;5.07;;;7.70;81.90;;;;;;5061669;28;20339;-82
2023/01/07 01:06:27;;;;;;;8.77;4.53;;;7.60;81.80;;;;;;5063831;28;20201;-80
2023/01/07 01:08:56;;;;;;;8.60;4.70;;;7.60;81.90;;;;;;5063432;28;20198;-81
2023/01/07 01:11:24;;;;;;;8.30;4.40;;;7.60;81.90;;;;;;5064285;28;20217;-80
2023/01/07 01:13:52;;;;;;;9.03;5.10;;;7.60;81.80;;;;;;5067117;28;20205;-80
2023/01/07 01:16:21;;;;;;;7.00;4.40;;;7.50;81.90;;;;;;5067555;28;20247;-79
2023/01/07 01:18:49;;;;;;;9.03;4.93;;;7.50;82.00;;;;;;5066879;28;20530;-80
2023/01/07 01:21:19;;;;;;;9.97;5.10;;;7.40;82.10;;;;;;5067205;28;20190;-80
2023/01/07 01:23:48;;;;;;;7.73;4.33;;;7.40;82.10;;;;;;5063312;28;20204;-80
2023/01/07 01:26:17;;;;;;;8.63;4.33;;;7.40;82.10;;;;;;5062655;28;20587;-80
2023/01/07 01:28:45;;;;;;;7.43;4.10;;;7.30;81.90;;;;;;5063651;28;20210;-80
2023/01/07 01:31:14;;;;;;;9.43;4.27;;;7.30;81.80;;;;;;5068813;28;20246;-81
2023/01/07 01:33:42;;;;;;;7.13;4.10;;;7.30;81.80;;;;;;5068375;28;20680;-80
2023/01/07 01:36:12;;;;;;;7.97;4.57;;;7.30;81.90;;;;;;5064242;28;20199;-80
2023/01/07 01:38:42;;;;;;;10.70;4.83;;;7.20;81.90;;;;;;5068422;28;20208;-80
2023/01/07 01:41:12;;;;;;;6.93;3.80;;;7.20;81.80;;;;;;5067749;28;20202;-80
2023/01/07 01:43:43;;;;;;;8.57;4.23;;;7.20;81.80;;;;;;5064446;28;20212;-83
2023/01/07 01:46:14;;;;;;;6.73;4.00;;;7.10;81.90;;;;;;5061030;28;20190;-81
2023/01/07 01:48:47;;;;;;;9.00;4.30;;;7.00;82.20;;;;;;5062241;28;20219;-81
2023/01/07 01:51:19;;;;;;;8.03;4.47;;;7.00;82.20;;;;;;5068095;28;20198;-82
2023/01/07 01:53:49;;;;;;;7.80;3.63;;;7.00;82.30;;;;;;5067609;28;20201;-81
2023/01/07 01:56:21;;;;;;;8.93;4.37;;;6.90;82.60;;;;;;5066563;28;20258;-81
2023/01/07 01:58:53;;;;;;;10.40;4.40;;;6.90;82.50;;;;;;5067695;28;20213;-80
2023/01/07 02:01:22;;;;;;;11.17;4.43;;;6.80;82.70;;;;;;5064231;28;20204;-81
2023/01/07 02:03:51;;;;;;;6.33;3.60;;;6.80;82.90;;;;;;5066424;28;20205;-80
2023/01/07 02:06:24;;;;;;;8.37;4.20;;;6.70;83.20;;;;;;5062924;28;20209;-81
2023/01/07 02:08:53;;;;;;;8.53;4.17;;;6.80;83.20;;;;;;5066512;28;20669;-81
2023/01/07 02:11:31;;;;;;;8.20;3.60;;;6.80;83.20;;;;;;5070360;28;20215;-81
2023/01/07 02:14:10;;;;;;;7.47;3.83;;;6.80;83.10;;;;;;5066473;28;20603;-81
2023/01/07 02:16:47;;;;;;;6.50;3.40;;;6.80;83.30;;;;;;5066759;28;20231;-80
2023/01/07 02:19:47;;;;;;;7.80;3.93;;;6.70;83.30;;;;;;5069406;28;20262;-81
2023/01/07 02:22:25;;;;;;;7.57;4.63;;;6.70;83.20;;;;;;5056915;28;20197;-81
2023/01/07 02:25:25;;;;;;;7.30;3.83;;;6.70;83.10;;;;;;5059338;28;20251;-82
2023/01/07 02:28:28;;;;;;;9.33;4.03;;;6.70;83.00;;;;;;5065607;28;20197;-81
2023/01/07 02:31:26;;;;;;;6.90;3.73;;;6.70;83.00;;;;;;5063469;28;20201;-81
2023/01/07 02:34:02;;;;;;;7.57;3.70;;;6.70;82.80;;;;;;5047719;28;20226;-80
2023/01/07 02:36:47;;;;;;;7.00;3.73;;;6.70;82.90;;;;;;5066558;28;20212;-81
2023/01/07 02:39:32;;;;;;;6.67;3.70;;;6.60;82.70;;;;;;5068406;28;20255;-81
2023/01/07 02:42:08;;;;;;;7.80;3.90;;;6.70;82.80;;;;;;5063280;28;20189;-81
2023/01/07 02:44:42;;;;;;;6.50;3.20;;;6.60;82.90;;;;;;5064817;28;20196;-80
2023/01/07 02:47:17;;;;;;;8.20;4.40;;;6.60;82.90;;;;;;5074275;28;20204;-81
2023/01/07 02:49:48;;;;;;;5.57;3.30;;;6.60;82.90;;;;;;5068093;28;20213;-81
2023/01/07 02:52:19;;;;;;;7.57;3.80;;;6.60;82.90;;;;;;5066619;28;20231;-80
2023/01/07 02:54:54;;;;;;;7.10;3.77;;;6.60;82.90;;;;;;5067547;28;20205;-81
2023/01/07 02:58:01;;;;;;;8.03;4.17;;;6.60;82.90;;;;;;5067217;28;20223;-81
2023/01/07 03:00:57;;;;;;;7.47;4.10;;;6.60;82.90;;;;;;5061261;28;20200;-81
2023/01/07 03:03:43;;;;;;;7.23;3.70;;;6.60;82.90;;;;;;5071019;28;20229;-81
2023/01/07 03:06:31;;;;;;;7.10;3.47;;;6.60;82.90;;;;;;5065855;28;20194;-81
2023/01/07 03:09:07;;;;;;;6.60;3.77;;;6.60;82.80;;;;;;5069571;28;20213;-81
2023/01/07 03:11:42;;;;;;;9.00;3.67;;;6.60;82.70;;;;;;5068789;28;20545;-81
2023/01/07 03:14:17;;;;;;;7.73;4.37;;;6.60;82.60;;;;;;5072472;28;20209;-81
2023/01/07 03:16:53;;;;;;;7.30;3.90;;;6.60;82.60;;;;;;5070385;28;20237;-81
2023/01/07 03:19:28;;;;;;;8.50;4.23;;;6.60;82.60;;;;;;5064960;28;20211;-81
2023/01/07 03:22:00;;;;;;;8.03;4.37;;;6.60;82.50;;;;;;5068398;28;20195;-80
2023/01/07 03:24:30;;;;;;;6.27;3.77;;;6.60;82.30;;;;;;5061077;28;20668;-81
2023/01/07 03:27:03;;;;;;;8.83;4.40;;;6.70;82.30;;;;;;5059986;28;20200;-80
2023/01/07 03:29:32;;;;;;;8.90;4.83;;;6.60;82.20;;;;;;5065427;28;22192;-83
2023/01/07 03:32:07;;;;;;;9.87;4.73;;;6.60;82.00;;;;;;5070968;28;20208;-81
2023/01/07 03:34:37;;;;;;;7.10;4.60;;;6.70;82.00;;;;;;5062633;28;20603;-81
2023/01/07 03:37:12;;;;;;;8.23;4.10;;;6.70;82.00;;;;;;5067773;28;20195;-81
2023/01/07 03:39:42;;;;;;;8.97;4.17;;;6.70;82.00;;;;;;5071123;28;20197;-81
2023/01/07 03:44:58;;;;;;;9.23;4.97;;;6.60;82.40;;;;;;5068555;28;20191;-81
2023/01/07 03:47:28;;;;;;;9.93;5.13;;;6.60;82.30;;;;;;5069050;28;20203;-81
2023/01/07 03:49:56;;;;;;;8.73;5.00;;;6.60;82.30;;;;;;5067455;28;20267;-81
2023/01/07 03:52:26;;;;;;;8.20;4.33;;;6.60;82.50;;;;;;5070126;28;20209;-81
2023/01/07 03:54:55;;;;;;;9.10;4.73;;;6.60;82.50;;;;;;5071277;28;20202;-82
2023/01/07 03:57:23;;;;;;;9.10;4.93;;;6.60;82.60;;;;;;5065762;28;20251;-81
2023/01/07 03:59:51;;;;;;;9.97;4.77;;;6.50;82.60;;;;;;5067452;28;20615;-81
2023/01/07 04:02:20;;;;;;;9.70;4.80;;;6.50;82.50;;;;;;5071848;28;20563;-81
2023/01/07 04:04:48;;;;;;;9.47;5.57;;;6.50;82.50;;;;;;5067175;28;20229;-81
2023/01/07 04:07:17;;;;;;;14.83;6.03;;;6.50;82.50;;;;;;5067293;28;20282;-81
2023/01/07 04:09:48;;;;;;;13.47;6.37;;;6.50;82.50;;;;;;5067906;28;20656;-81
2023/01/07 04:12:16;;;;;;;10.50;5.97;;;6.50;82.40;;;;;;5070116;28;20202;-81
2023/01/07 04:14:45;;;;;;;9.27;4.83;;;6.50;82.40;;;;;;5069942;28;20284;-81
2023/01/07 04:17:13;;;;;;;9.70;5.77;;;6.50;82.30;;;;;;5070152;28;20236;-81
2023/01/07 04:19:42;;;;;;;8.80;5.23;;;6.50;82.30;;;;;;5063231;28;20205;-81
2023/01/07 04:22:10;;;;;;;12.77;5.53;;;6.50;82.20;;;;;;5067358;28;20200;-81
2023/01/07 04:24:39;;;;;;;11.33;5.97;;;6.40;82.00;;;;;;5068655;28;20252;-82
2023/01/07 04:27:09;;;;;;;9.53;5.07;;;6.40;82.00;;;;;;5070574;28;20210;-81
2023/01/07 04:29:37;;;;;;;10.13;5.20;;;6.40;82.00;;;;;;5068530;28;20572;-80
2023/01/07 04:32:06;;;;;;;11.95;5.88;;;6.40;81.90;;;;;;5069861;28;20477;-81
2023/01/07 04:34:34;;;;;;;10.60;5.83;;;6.40;81.90;;;;;;5069044;28;20219;-81
2023/01/07 04:37:03;;;;;;;9.77;5.17;;;6.40;81.90;;;;;;5066098;28;20200;-81
2023/01/07 04:39:31;;;;;;;14.90;5.37;;;6.40;81.90;;;;;;5069551;28;20211;-82
2023/01/07 04:41:59;;;;;;;7.60;4.87;;;6.40;81.90;;;;;;5066749;28;20203;-80
2023/01/07 04:44:29;;;;;;;10.30;5.73;;;6.40;81.90;;;;;;5069894;28;20204;-80
2023/01/07 04:46:57;;;;;;;9.17;5.40;;;6.40;81.90;;;;;;5067702;28;20199;-80
2023/01/07 04:49:26;;;;;;;9.23;4.43;;;6.30;81.80;;;;;;5067918;28;20644;-80
2023/01/07 04:51:54;;;;;;;9.83;5.17;;;6.30;81.80;;;;;;5063301;28;20199;-80
2023/01/07 04:54:23;;;;;;;11.63;5.63;;;6.30;81.80;;;;;;5069968;28;20223;-80
2023/01/07 04:56:51;;;;;;;9.77;5.10;;;6.30;81.80;;;;;;5061399;28;20214;-81
2023/01/07 04:59:20;;;;;;;11.57;5.10;;;6.30;81.80;;;;;;5063685;28;20216;-80
2023/01/07 05:01:49;;;;;;;8.63;4.77;;;6.30;81.80;;;;;;5063840;28;20267;-80
2023/01/07 05:04:18;;;;;;;11.53;5.23;;;6.30;81.80;;;;;;5067580;28;20204;-80
2023/01/07 05:06:47;;;;;;;9.83;5.10;;;6.30;81.80;;;;;;5065922;28;20219;-79
2023/01/07 05:09:15;;;;;;;10.60;5.43;;;6.20;81.70;;;;;;5071275;28;20194;-80
2023/01/07 05:11:44;;;;;;;11.43;5.80;;;6.30;81.70;;;;;;5065526;28;20194;-79
2023/01/07 05:14:13;;;;;;;15.17;5.57;;;6.20;81.60;;;;;;5063065;28;20679;-79
2023/01/07 05:16:41;;;;;;;7.70;4.50;;;6.20;81.60;;;;;;5061901;28;20230;-80
2023/01/07 05:19:11;;;;;;;7.77;4.30;;;6.20;81.70;;;;;;5063957;28;20200;-80
2023/01/07 05:21:40;;;;;;;9.03;4.50;;;6.20;81.70;;;;;;5065449;28;20200;-80
2023/01/07 05:24:08;;;;;;;9.10;4.60;;;6.20;81.70;;;;;;5065003;28;20211;-79
2023/01/07 05:26:37;;;;;;;8.53;4.40;;;6.20;81.80;;;;;;5064896;28;20203;-80
2023/01/07 05:29:05;;;;;;;11.20;4.90;;;6.20;81.80;;;;;;5066124;28;20210;-81
2023/01/07 05:31:34;;;;;;;9.37;4.90;;;6.10;81.80;;;;;;5068426;28;20668;-80
2023/01/07 05:34:02;;;;;;;7.77;4.60;;;6.10;81.90;;;;;;5068620;28;20708;-80
2023/01/07 05:36:32;;;;;;;11.10;4.77;;;6.10;81.90;;;;;;5065485;28;20268;-80
2023/01/07 05:39:00;;;;;;;14.60;5.17;;;6.10;82.00;;;;;;5064553;28;20655;-80
2023/01/07 05:41:29;;;;;;;9.47;5.10;;;6.10;82.10;;;;;;5067112;28;20198;-80
2023/01/07 05:43:57;;;;;;;13.95;6.30;;;6.00;82.10;;;;;;5061885;28;20435;-79
2023/01/07 05:46:26;;;;;;;13.83;5.53;;;6.00;82.60;;;;;;5061960;28;20217;-80
2023/01/07 05:48:54;;;;;;;16.87;6.20;;;6.00;82.80;;;;;;5067910;28;20646;-80
2023/01/07 05:51:23;;;;;;;10.07;5.10;;;6.00;82.70;;;;;;5069768;28;20690;-81
2023/01/07 05:53:52;;;;;;;10.47;5.57;;;6.00;82.70;;;;;;5068269;28;20222;-80
2023/01/07 05:56:21;;;;;;;15.20;6.40;;;6.00;82.70;;;;;;5064405;28;20316;-80
2023/01/07 05:58:49;;;;;;;13.03;6.40;;;6.00;82.70;;;;;;5067126;28;20257;-80
2023/01/07 06:01:18;;;;;;;12.93;6.63;;;6.00;82.60;;;;;;5065435;28;20202;-80
2023/01/07 06:03:47;;;;;;;11.77;6.73;;;6.00;82.50;;;;;;5060828;28;20198;-80
2023/01/07 06:06:15;;;;;;;13.67;7.10;;;6.00;82.50;;;;;;5061576;28;20203;-80
2023/01/07 06:08:43;;;;;;;13.83;7.33;;;6.00;82.40;;;;;;5062521;28;20227;-80
2023/01/07 06:11:13;;;;;;;14.93;7.97;;;6.00;82.40;;;;;;5061667;28;20251;-80
2023/01/07 06:13:42;;;;;;;12.63;6.50;;;6.00;82.30;;;;;;5068049;28;20202;-80
2023/01/07 06:16:12;;;;;;;13.77;6.67;;;6.00;82.40;;;;;;5066251;28;20250;-80
2023/01/07 06:18:41;;;;;;;18.10;7.20;;;6.00;82.40;;;;;;5069151;28;20670;-80
2023/01/07 06:21:09;;;;;;;13.57;6.93;;;6.00;82.40;;;;;;5073376;28;20544;-79
2023/01/07 06:23:38;;;;;;;14.63;7.00;;;6.00;82.40;;;;;;5073617;28;20209;-78
2023/01/07 06:26:06;;;;;;;13.27;7.13;;;6.00;82.50;;;;;;5071908;28;20704;-80
2023/01/07 06:28:36;;;;;;;12.50;7.37;;;6.00;82.50;;;;;;5074401;28;20205;-80
2023/01/07 06:31:04;;;;;;;13.57;6.77;;;6.00;82.60;;;;;;5072471;28;20244;-80
2023/01/07 06:33:32;;;;;;;14.93;6.80;;;6.00;82.60;;;;;;5074227;28;20205;-81
2023/01/07 06:36:01;;;;;;;17.43;8.10;;;6.00;82.70;;;;;;5070990;28;20277;-80
2023/01/07 06:38:29;;;;;;;17.30;8.13;;;6.00;82.70;;;;;;5074584;28;20254;-80
2023/01/07 06:40:58;;;;;;;14.67;7.60;;;6.10;82.80;;;;;;5069424;28;20192;-80
2023/01/07 06:43:26;;;;;;;15.00;8.10;;;6.10;82.80;;;;;;5067430;28;20205;-81
2023/01/07 06:45:56;;;;;;;13.17;7.33;;;6.10;82.80;;;;;;5073329;28;20554;-80
2023/01/07 06:48:25;;;;;;;15.20;8.30;;;6.20;82.90;;;;;;5072071;28;20199;-81
2023/01/07 06:50:53;;;;;;;14.53;7.33;;;6.20;83.00;;;;;;5068686;28;20604;-79
2023/01/07 06:53:22;;;;;;;17.40;8.70;;;6.20;83.00;;;;;;5064280;28;20191;-80
2023/01/07 06:55:50;;;;;;;18.27;8.70;;;6.20;83.00;;;;;;5066707;28;20210;-80
2023/01/07 06:58:19;;;;;;;16.37;8.50;;;6.30;83.00;;;;;;5070746;28;20196;-79
2023/01/07 07:00:47;;;;;;;16.03;7.80;;;6.30;83.10;;;;;;5070080;28;20666;-80
2023/01/07 07:03:17;;;;;;;15.20;7.67;;;6.30;83.00;;;;;;5066636;28;20671;-79
2023/01/07 07:05:46;;;;;;;15.27;7.60;;;6.40;83.10;;;;;;5073327;28;20200;-80
2023/01/07 07:08:14;;;;;;;12.93;7.30;;;6.40;83.00;;;;;;5075724;28;20211;-80
2023/01/07 07:10:43;;;;;;;15.87;7.93;;;6.40;83.30;;;;;;5074343;28;20208;-80
2023/01/07 07:13:11;;;;;;;16.87;7.43;;;6.50;83.30;;;;;;5067465;28;20200;-80
2023/01/07 07:15:40;;;;;;;16.53;8.93;;;6.50;83.30;;;;;;5071217;28;20603;-84
2023/01/07 07:18:11;;;;;;;14.90;8.30;;;6.50;83.30;;;;;;5066798;28;20279;-79
2023/01/07 07:20:41;;;;;;;18.73;9.13;;;6.60;83.50;;;;;;5073338;28;20198;-80
2023/01/07 07:23:09;;;;;;;18.23;9.13;;;6.60;83.50;;;;;;5066889;28;20207;-80
2023/01/07 07:25:38;;;;;;;17.70;8.97;;;6.60;83.80;;;;;;5073153;28;20672;-81
2023/01/07 07:28:09;;;;;;;17.40;9.30;;;6.60;83.60;;;;;;5068576;28;20658;-81
2023/01/07 07:30:37;;;;;;;16.10;9.33;;;6.70;83.50;;;;;;5069022;28;20200;-82
2023/01/07 07:33:17;;;;;;;17.53;10.00;;;6.70;83.80;;;;;;5073615;28;20210;-80
2023/01/07 07:35:48;;;;;;;20.93;9.67;;;6.70;83.60;;;;;;5070536;28;20616;-81
2023/01/07 07:38:17;;;;;;;21.07;11.00;;;6.90;83.50;;;;;;5070964;28;20209;-81
2023/01/07 07:40:46;;;;;;;20.63;11.37;;;6.90;83.30;;;;;;5064828;28;20229;-81
2023/01/07 07:43:15;;;;;;;20.33;10.60;;;7.00;83.50;;;;;;5063586;28;20216;-82
2023/01/07 07:45:44;;;;;;;23.77;11.53;;;7.00;83.30;;;;;;5068552;28;20259;-84
2023/01/07 07:48:14;;;;;;;22.55;11.80;;;7.10;84.10;;;;;;5063665;28;20447;-81
2023/01/07 07:50:43;;;;;;;23.43;12.17;;;7.20;83.30;;;;;;5066410;28;20203;-80
2023/01/07 07:53:14;;;;;;;20.20;11.23;;;7.30;83.30;;;;;;5062782;28;20210;-81
2023/01/07 07:55:42;;;;;;;21.77;10.93;;;7.40;83.20;;;;;;5061330;28;20214;-81
2023/01/07 07:58:11;;;;;;;18.47;9.73;;;7.60;83.30;;;;;;5072531;28;20663;-80
2023/01/07 08:00:39;;;;;;;17.77;9.67;;;7.60;83.00;;;;;;5062997;28;20865;-80
2023/01/07 08:03:08;;;;;;;17.33;8.47;;;7.80;83.10;;;;;;5069535;28;20202;-79
2023/01/07 08:05:40;;;;;;;12.17;7.13;;;7.90;82.70;;;;;;5068437;28;20258;-79
2023/01/07 08:08:10;;;;;;;16.33;8.10;;;8.00;82.70;;;;;;5070982;28;20202;-79
2023/01/07 08:10:40;;;;;;;11.60;6.33;;;8.10;82.50;;;;;;5060514;28;20225;-80
2023/01/07 08:13:09;;;;;;;9.93;5.70;;;8.20;82.50;;;;;;5065796;28;20290;-79
2023/01/07 08:15:38;;;;;;;10.60;6.27;;;8.30;82.10;;;;;;5067167;28;20234;-79
2023/01/07 08:18:08;;;;;;;10.17;6.00;;;8.50;81.90;;;;;;5067433;28;20213;-79
2023/01/07 08:20:37;;;;;;;8.13;4.83;;;8.60;81.60;;;;;;5069989;28;20194;-80
2023/01/07 08:23:07;;;;;;;10.70;5.30;;;8.70;81.00;;;;;;5061748;28;20205;-81
2023/01/07 08:25:36;;;;;;;8.17;4.87;;;8.80;80.60;;;;;;5069852;28;20194;-81
2023/01/07 08:28:06;;;;;;;8.90;5.50;;;8.80;79.90;;;;;;5069846;28;20198;-81
2023/01/07 08:30:34;;;;;;;9.37;4.83;;;8.90;80.10;;;;;;5067671;28;20655;-80
2023/01/07 08:33:07;;;;;;;9.40;5.13;;;9.00;80.00;;;;;;5073093;28;20209;-80
2023/01/07 08:35:36;;;;;;;10.13;4.37;;;9.10;79.90;;;;;;5069835;28;20612;-81
2023/01/07 08:38:06;;;;;;;8.37;4.90;;;9.20;79.60;;;;;;5071104;28;20197;-80
2023/01/07 08:40:35;;;;;;;11.33;5.10;;;9.30;79.00;;;;;;5069811;28;20210;-80
2023/01/07 08:43:06;;;;;;;8.47;5.10;;;9.40;79.10;;;;;;5069325;28;20207;-81
2023/01/07 08:45:35;;;;;;;8.67;5.00;;;9.50;79.10;;;;;;5070071;28;20678;-81
2023/01/07 08:48:04;;;;;;;8.17;4.63;;;9.50;78.30;;;;;;5072468;28;20213;-80
2023/01/07 08:50:34;;;;;;;8.67;5.17;;;9.50;77.80;;;;;;5071956;28;20243;-80
2023/01/07 08:53:02;;;;;;;10.20;5.23;;;9.60;77.50;;;;;;5071630;28;20221;-80
2023/01/07 08:55:31;;;;;;;9.73;5.63;;;9.70;77.70;;;;;;5072320;28;20210;-81
2023/01/07 08:57:59;;;;;;;11.53;6.23;;;9.70;77.80;;;;;;5070479;28;20499;-80
2023/01/07 09:00:29;;;;;;;10.00;5.40;;;9.80;76.90;;;;;;5059916;28;20207;-80
2023/01/07 09:02:57;;;;;;;11.00;5.77;;;9.80;76.50;;;;;;5068192;28;20206;-80
2023/01/07 09:05:26;;;;;;;9.47;5.33;;;9.90;76.20;;;;;;5064849;28;20218;-82
2023/01/07 09:07:55;;;;;;;8.82;5.38;;;9.90;76.30;;;;;;5056224;28;20442;-81
2023/01/07 09:10:24;;;;;;;8.70;5.00;;;10.00;76.30;;;;;;5069073;28;20202;-81
2023/01/07 09:12:52;;;;;;;8.97;4.57;;;10.00;75.40;;;;;;5070417;28;20202;-81
2023/01/07 09:15:21;;;;;;;8.83;4.60;;;10.10;75.40;;;;;;5066720;28;20198;-82
2023/01/07 09:17:51;;;;;;;9.47;5.10;;;10.20;75.90;;;;;;5049364;28;20597;-80
2023/01/07 09:20:21;;;;;;;10.33;4.93;;;10.20;75.20;;;;;;5042106;28;20191;-80
2023/01/07 09:22:49;;;;;;;8.07;4.60;;;10.30;74.80;;;;;;5049488;28;20198;-79
2023/01/07 09:25:18;;;;;;;12.00;5.63;;;10.40;74.70;;;;;;5047279;28;20623;-81
2023/01/07 09:27:46;;;;;;;12.50;4.37;;;10.50;74.60;;;;;;5048737;28;20245;-78
2023/01/07 09:30:15;;;;;;;6.47;3.67;;;10.60;74.50;;;;;;5051044;28;20249;-78
2023/01/07 09:32:44;;;;;;;9.50;4.73;;;10.60;74.10;;;;;;5044496;28;20199;-79
2023/01/07 09:35:14;;;;;;;8.83;4.60;;;10.70;73.80;;;;;;5043849;28;20269;-79
2023/01/07 09:37:42;;;;;;;9.33;4.57;;;10.80;73.90;;;;;;5050925;28;20211;-79
2023/01/07 09:40:21;;;;;;;8.50;5.10;;;10.90;73.80;;;;;;5047458;28;20227;-81
2023/01/07 09:42:56;;;;;;;10.00;5.20;;;10.90;73.70;;;;;;5051925;28;20195;-79
2023/01/07 09:45:29;;;;;;;10.07;4.63;;;11.00;73.30;;;;;;5044728;28;20202;-80
2023/01/07 09:47:59;;;;;;;9.37;3.50;;;11.10;72.90;;;;;;5049996;28;20233;-78
2023/01/07 09:50:42;;;;;;;10.50;4.37;;;11.10;72.80;;;;;;5052921;28;20225;-78
2023/01/07 09:53:15;;;;;;;5.97;3.97;;;11.20;72.40;;;;;;5038567;28;20233;-79
2023/01/07 09:55:44;;;;;;;9.97;5.17;;;11.30;72.90;;;;;;5046961;28;20191;-80
2023/01/07 09:58:33;;;;;;;10.13;4.70;;;11.40;72.90;;;;;;5051204;28;20203;-80
2023/01/07 10:01:17;;;;;;;10.10;5.10;;;11.40;72.70;;;;;;5042293;28;20188;-79
2023/01/07 10:03:54;;;;;;;7.63;4.53;;;11.50;72.20;;;;;;5051032;28;20198;-78
2023/01/07 10:06:34;;;;;;;14.93;4.70;;;11.60;72.00;;;;;;5050498;28;20699;-79
2023/01/07 10:09:21;;;;;;;9.30;5.03;;;11.60;72.30;;;;;;5038015;28;20211;-79
2023/01/07 10:11:59;;;;;;;8.43;5.00;;;11.70;72.30;;;;;;5043873;28;20265;-80
2023/01/07 10:14:43;;;;;;;9.27;5.73;;;11.70;72.10;;;;;;5047284;28;20197;-77
2023/01/07 10:17:22;;;;;;;9.00;5.40;;;11.80;72.60;;;;;;5050332;28;20698;-80
2023/01/07 10:19:58;;;;;;;9.43;5.83;;;11.90;72.70;;;;;;5047362;28;20655;-79
2023/01/07 10:22:32;;;;;;;9.13;4.70;;;12.00;72.40;;;;;;5047915;28;20215;-80
2023/01/07 10:25:04;;;;;;;9.57;5.50;;;12.10;72.30;;;;;;5045431;28;20433;-82
2023/01/07 10:27:37;;;;;;;8.43;4.83;;;12.20;73.20;;;;;;5048549;28;20248;-79
2023/01/07 10:30:12;;;;;;;8.77;5.43;;;12.20;71.80;;;;;;5049645;28;20619;-80
2023/01/07 10:32:41;;;;;;;9.73;4.47;;;12.30;71.80;;;;;;5049381;28;20569;-81
2023/01/07 10:35:17;;;;;;;11.87;4.70;;;12.40;72.10;;;;;;5050145;28;20490;-80
2023/01/07 10:37:47;;;;;;;7.97;4.47;;;12.40;71.90;;;;;;5045288;28;20199;-79
2023/01/07 10:40:30;;;;;;;14.17;4.60;;;12.50;71.50;;;;;;5050317;28;20203;-80
2023/01/07 10:43:03;;;;;;;9.20;4.97;;;12.50;71.40;;;;;;5047956;28;20191;-80
2023/01/07 10:45:57;;;;;;;9.67;4.97;;;12.60;71.50;;;;;;5050193;28;20191;-80
2023/01/07 10:48:55;;;;;;;7.43;4.57;;;12.70;71.30;;;;;;5043844;28;20703;-80
2023/01/07 10:51:54;;;;;;;7.57;4.23;;;12.80;71.30;;;;;;5048977;28;20260;-80
2023/01/07 10:54:55;;;;;;;10.97;5.20;;;12.80;71.00;;;;;;5044675;28;20199;-81
2023/01/07 10:57:27;;;;;;;8.07;4.40;;;12.90;71.20;;;;;;5031207;28;20600;-80
2023/01/07 11:00:01;;;;;;;8.70;4.90;;;13.00;70.40;;;;;;5041976;28;20195;-79
2023/01/07 11:02:30;;;;;;;8.87;5.07;;;13.10;70.30;;;;;;5047387;28;20203;-77
2023/01/07 11:04:59;;;;;;;8.97;5.03;;;13.10;70.10;;;;;;5047869;28;20207;-79
2023/01/07 11:07:39;;;;;;;10.27;5.63;;;13.20;70.10;;;;;;5054041;28;20602;-79
2023/01/07 11:10:15;;;;;;;10.97;5.13;;;13.30;70.30;;;;;;5052886;28;20205;-79
2023/01/07 11:12:46;;;;;;;8.93;4.77;;;13.40;69.90;;;;;;5055059;28;20199;-78
2023/01/07 11:15:19;;;;;;;10.60;6.03;;;13.40;69.00;;;;;;5049383;28;20238;-78
2023/01/07 11:17:54;;;;;;;8.57;5.57;;;13.40;68.70;;;;;;5050456;28;20284;-80
2023/01/07 11:20:49;;;;;;;10.57;6.37;;;13.40;68.70;;;;;;5048031;28;20233;-80
2023/01/07 11:23:29;;;;;;;9.20;5.83;;;13.40;68.80;;;;;;5055638;28;20273;-80
2023/01/07 11:26:15;;;;;;;12.97;6.20;;;13.50;69.40;;;;;;5046824;28;20670;-81
2023/01/07 11:28:51;;;;;;;11.47;5.77;;;13.50;68.90;;;;;;5046653;28;20186;-79
2023/01/07 11:31:20;;;;;;;9.37;5.43;;;13.50;68.60;;;;;;5053653;28;20191;-79
2023/01/07 11:33:52;;;;;;;11.67;5.37;;;13.50;68.60;;;;;;5055360;28;20207;-81
2023/01/07 11:36:41;;;;;;;8.03;4.83;;;13.60;69.00;;;;;;5053385;28;20199;-78
2023/01/07 11:39:11;;;;;;;7.97;4.53;;;13.60;68.40;;;;;;5050543;28;20288;-79
2023/01/07 11:41:52;;;;;;;8.03;4.53;;;13.70;68.80;;;;;;5051993;28;20202;-81
2023/01/07 11:44:21;;;;;;;10.07;5.03;;;13.70;68.20;;;;;;5052439;28;20214;-79
2023/01/07 11:46:50;;;;;;;8.77;5.13;;;13.70;68.60;;;;;;5051842;28;20199;-80
2023/01/07 11:49:25;;;;;;;8.83;4.80;;;13.80;68.30;;;;;;5054551;28;20211;-80
2023/01/07 11:51:53;;;;;;;10.20;5.10;;;13.90;68.90;;;;;;5053628;28;20647;-80
2023/01/07 11:54:24;;;;;;;8.47;4.97;;;13.90;68.50;;;;;;5055218;28;20198;-81
2023/01/07 11:57:12;;;;;;;8.90;4.43;;;13.90;68.30;;;;;;5051891;28;20202;-80
2023/01/07 11:59:40;;;;;;;7.70;4.67;;;14.00;68.40;;;;;;5048801;28;20199;-82
2023/01/07 12:02:24;;;;;;;7.57;4.97;;;14.00;68.80;;;;;;5052077;28;20718;-79
2023/01/07 12:05:13;;;;;;;8.43;4.47;;;14.10;69.00;;;;;;5052523;28;20277;-80
2023/01/07 12:07:45;;;;;;;7.13;4.70;;;14.10;69.10;;;;;;5053575;28;20187;-78
2023/01/07 12:10:34;;;;;;;9.43;4.90;;;14.10;68.20;;;;;;5053612;28;20199;-80
2023/01/07 12:13:16;;;;;;;10.90;5.30;;;14.10;68.30;;;;;;5047655;28;20195;-78
2023/01/07 12:15:52;;;;;;;10.17;5.53;;;14.10;68.50;;;;;;5051088;28;20281;-80
2023/01/07 12:18:46;;;;;;;7.30;4.90;;;14.00;67.70;;;;;;5051051;28;20690;-80
2023/01/07 12:21:34;;;;;;;8.77;4.70;;;13.90;68.00;;;;;;5045971;28;20195;-80
2023/01/07 12:24:33;;;;;;;8.77;4.73;;;13.90;68.10;;;;;;5055806;28;20199;-80
2023/01/07 12:27:15;;;;;;;9.60;4.80;;;13.80;68.20;;;;;;5031936;28;20301;-78
2023/01/07 12:29:55;;;;;;;8.20;4.77;;;13.70;68.70;;;;;;5044981;28;20656;-79
2023/01/07 12:32:39;;;;;;;7.60;4.80;;;13.80;69.10;;;;;;5047251;28;20199;-77
2023/01/07 12:35:12;;;;;;;15.30;5.67;;;13.70;69.40;;;;;;5051136;28;20198;-77
2023/01/07 12:37:47;;;;;;;9.37;5.07;;;13.80;69.40;;;;;;5046990;28;20211;-78
2023/01/07 12:40:23;;;;;;;9.53;4.93;;;13.80;69.50;;;;;;5048766;28;20195;-79
2023/01/07 12:42:56;;;;;;;8.83;4.87;;;13.80;69.60;;;;;;5049413;28;20217;-79
2023/01/07 12:45:33;;;;;;;9.67;5.47;;;13.90;69.70;;;;;;5046619;28;20187;-80
2023/01/07 12:48:06;;;;;;;11.17;5.63;;;13.90;69.50;;;;;;5047144;28;20739;-80
2023/01/07 12:50:40;;;;;;;10.23;5.10;;;14.00;69.60;;;;;;5043647;28;20218;-79
2023/01/07 12:53:15;;;;;;;6.23;4.33;;;14.00;69.40;;;;;;5047388;28;20191;-80
2023/01/07 12:55:48;;;;;;;7.37;4.30;;;14.00;68.80;;;;;;5042811;28;20215;-80
2023/01/07 12:58:24;;;;;;;9.27;4.43;;;13.90;69.00;;;;;;5051157;28;20237;-79
2023/01/07 13:01:00;;;;;;;11.07;5.80;;;13.90;68.90;;;;;;5050542;28;20199;-80
2023/01/07 13:03:38;;;;;;;9.07;4.00;;;13.80;69.10;;;;;;5048464;28;20739;-79
2023/01/07 13:06:14;;;;;;;17.93;9.23;;;13.80;69.40;;;;;;5052839;28;20264;-80
2023/01/07 13:08:47;;;;;;;16.30;9.47;;;13.70;69.60;;;;;;5049346;28;20324;-79
2023/01/07 13:12:41;;;;;;;15.93;8.40;;;13.70;70.10;;;;;;5046915;28;20207;-79
2023/01/07 13:14:17;;;;;;;9.50;5.53;;;13.90;70.80;;;;;;5049678;28;20203;-80
2023/01/07 13:16:48;;;;;;;10.40;5.23;;;14.20;70.80;;;;;;5051597;28;20588;-79
2023/01/07 13:19:16;;;;;;;11.23;5.33;;;14.50;70.40;;;;;;5046511;28;20270;-80